NCAR-RAP Real-Time Weather Data

Output produced by METARs form (26 May 2016  10:36 UTC)
found at http://weather.rap.ucar.edu/surface/
 
Conditions at: KLOU observed 26 May 2016  09:53 UTC
Temperature: 20.0°C (68°F)
Dewpoint: 16.7°C (62°F) [RH = 81%]
Pressure (altimeter): 30.08 inches Hg (1018.7 mb)
[Sea-level pressure: 1017.9 mb]
Winds: from the SSE (160 degrees) at 5 MPH (4 knots; 2.1 m/s)
Visibility: 10 or more miles (16+ km)
Ceiling: 4800 feet AGL
Clouds: broken clouds at 4800 feet AGL
Present Weather: automated observation with no human augmentation;
there may or may not be significant weather present at this time
KLOU 260953Z AUTO 16004KT 10SM BKN048 20/17 A3008 RMK AO2 SLP179 T02000167